Cedarfalls, Iowa
Current Conditions -  °F | °C
As of 10:12 AM on Friday 24 Oct 2014 (Local Time) from KALO Reporting Station
Moderate Fog Moderate Fog  
Wind Chill: 50°   Ceiling: 200
Heat Index: 50°   Visibility: 0.5mi
Dew Point: 49°   Wind: 10mph
Humidity: 96%   Direction: 160°SSE
Pressure: 29.98"   Gusts: NA
Location:  42.5035°N, 92.4936°W
Report Text: KALO 241512Z AUTO 16009KT 1/2SM R12/2000V2800FT FG OVC002 10/09 A2998 RMK AO2 T01000094
Loading
Personal Weather Stations






























Interactive Weather Map New forecast layout! Learn more

10-Day Weather Forecast

Advertisements
Track Severe Weather on mobile